createdAt,value
2018-08-16T00:00:20.263Z,8.97
2018-08-16T00:02:49.431Z,9.60
2018-08-16T00:05:18.399Z,8.70
2018-08-16T00:07:47.385Z,9.70
2018-08-16T00:10:17.565Z,9.00
2018-08-16T00:12:48.116Z,8.10
2018-08-16T00:15:18.094Z,7.50
2018-08-16T00:17:47.321Z,8.30
2018-08-16T00:20:16.524Z,8.73
2018-08-16T00:22:45.802Z,8.60
2018-08-16T00:25:15.235Z,10.30
2018-08-16T00:27:44.275Z,9.37
2018-08-16T00:30:14.640Z,9.60
2018-08-16T00:32:44.059Z,9.67
2018-08-16T00:35:19.639Z,12.00
2018-08-16T00:37:48.643Z,9.63
2018-08-16T00:40:18.485Z,10.97
2018-08-16T00:42:47.712Z,10.10
2018-08-16T00:45:16.867Z,10.37
2018-08-16T00:47:45.963Z,9.13
2018-08-16T00:50:16.309Z,9.93
2018-08-16T00:52:45.523Z,11.00
2018-08-16T00:55:15.255Z,9.53
2018-08-16T00:57:44.283Z,9.90
2018-08-16T01:00:16.792Z,9.70
2018-08-16T01:02:46.392Z,9.57
2018-08-16T01:05:15.514Z,11.47
2018-08-16T01:07:44.767Z,9.00
2018-08-16T01:10:14.701Z,9.90
2018-08-16T01:12:44.402Z,12.40
2018-08-16T01:15:15.258Z,10.03
2018-08-16T01:17:44.282Z,9.63
2018-08-16T01:20:13.586Z,10.50
2018-08-16T01:22:42.557Z,11.37
2018-08-16T01:25:12.632Z,12.57
2018-08-16T01:27:41.608Z,9.63
2018-08-16T01:30:11.138Z,9.20
2018-08-16T01:32:40.187Z,9.53
2018-08-16T01:35:09.977Z,10.13
2018-08-16T01:37:39.460Z,9.50
2018-08-16T01:40:08.951Z,9.37
2018-08-16T01:42:38.998Z,11.60
2018-08-16T01:45:08.978Z,10.60
2018-08-16T01:47:38.572Z,9.27
2018-08-16T01:50:07.910Z,10.23
2018-08-16T01:52:36.914Z,8.57
2018-08-16T01:55:07.065Z,8.90
2018-08-16T01:57:36.158Z,8.77
2018-08-16T02:00:07.744Z,9.43
2018-08-16T02:02:36.964Z,8.07
2018-08-16T02:05:06.466Z,9.40
2018-08-16T02:07:35.607Z,10.00
2018-08-16T02:10:05.908Z,10.80
2018-08-16T02:12:35.114Z,11.53
2018-08-16T02:15:05.214Z,10.43
2018-08-16T02:17:37.535Z,11.83
2018-08-16T02:20:19.375Z,9.97
2018-08-16T02:22:48.564Z,11.70
2018-08-16T02:25:17.811Z,10.97
2018-08-16T02:27:47.019Z,10.80
2018-08-16T02:30:22.284Z,11.90
2018-08-16T02:32:51.381Z,11.17
2018-08-16T02:35:20.557Z,8.53
2018-08-16T02:37:49.820Z,9.77
2018-08-16T02:40:18.787Z,9.03
2018-08-16T02:42:47.738Z,9.57
2018-08-16T02:45:16.711Z,8.57
2018-08-16T02:47:45.846Z,9.50
2018-08-16T02:50:14.823Z,10.63
2018-08-16T02:52:43.784Z,9.50
2018-08-16T02:55:12.899Z,10.10
2018-08-16T02:57:42.045Z,10.13
2018-08-16T03:00:11.027Z,10.00
2018-08-16T03:02:39.999Z,10.63
2018-08-16T03:05:09.115Z,8.97
2018-08-16T03:07:38.087Z,8.53
2018-08-16T03:10:08.199Z,9.20
2018-08-16T03:12:37.167Z,10.30
2018-08-16T03:15:07.615Z,9.10
2018-08-16T03:17:36.830Z,9.97
2018-08-16T03:20:06.265Z,9.63
2018-08-16T03:22:42.095Z,9.70
2018-08-16T03:25:11.054Z,11.07
2018-08-16T03:27:40.032Z,11.13
2018-08-16T03:30:09.478Z,11.47
2018-08-16T03:32:38.464Z,11.20
2018-08-16T03:35:07.799Z,9.87
2018-08-16T03:37:36.860Z,11.60
2018-08-16T03:40:06.832Z,9.63
2018-08-16T03:42:35.896Z,11.00
2018-08-16T03:45:05.635Z,9.97
2018-08-16T03:47:34.691Z,10.60
2018-08-16T03:50:04.302Z,10.83
2018-08-16T03:52:33.268Z,10.10
2018-08-16T03:55:02.255Z,10.87
2018-08-16T03:57:31.303Z,10.53
2018-08-16T04:00:00.470Z,11.80
2018-08-16T04:02:29.451Z,12.13
2018-08-16T04:04:58.464Z,10.43
2018-08-16T04:07:27.412Z,9.63
2018-08-16T04:09:57.059Z,9.10
2018-08-16T04:12:26.268Z,8.87
2018-08-16T04:14:55.318Z,10.50
2018-08-16T04:17:29.739Z,11.10
2018-08-16T04:19:58.779Z,11.83
2018-08-16T04:22:27.807Z,10.50
2018-08-16T04:24:57.045Z,9.80
2018-08-16T04:27:26.502Z,8.90
2018-08-16T04:29:55.525Z,10.53
2018-08-16T04:32:24.476Z,9.57
2018-08-16T04:34:53.462Z,10.40
2018-08-16T04:37:22.773Z,11.00
2018-08-16T04:39:51.883Z,11.30
2018-08-16T04:42:20.860Z,10.70
2018-08-16T04:44:50.217Z,11.60
2018-08-16T04:47:19.410Z,10.40
2018-08-16T04:49:48.542Z,10.93
2018-08-16T04:52:17.976Z,11.00
2018-08-16T04:54:46.926Z,14.50
2018-08-16T04:57:16.515Z,11.30
2018-08-16T04:59:45.506Z,9.73
2018-08-16T05:02:14.768Z,10.30
2018-08-16T05:04:43.800Z,9.17
2018-08-16T05:07:12.769Z,10.20
2018-08-16T05:09:41.732Z,11.33
2018-08-16T05:12:10.695Z,10.77
2018-08-16T05:14:39.663Z,10.53
2018-08-16T05:17:08.660Z,11.00
2018-08-16T05:19:38.143Z,8.67
2018-08-16T05:22:07.363Z,10.83
2018-08-16T05:24:36.304Z,10.60
2018-08-16T05:27:05.854Z,10.13
2018-08-16T05:29:35.064Z,9.60
2018-08-16T05:32:04.060Z,9.50
2018-08-16T05:34:33.046Z,10.57
2018-08-16T05:37:02.199Z,9.53
2018-08-16T05:39:31.466Z,11.57
2018-08-16T05:42:00.491Z,9.20
2018-08-16T05:44:29.489Z,9.20
2018-08-16T05:46:58.434Z,8.40
2018-08-16T05:49:27.655Z,9.97
2018-08-16T05:51:56.702Z,9.57
2018-08-16T05:54:25.643Z,10.67
2018-08-16T05:56:54.584Z,10.07
2018-08-16T05:59:23.676Z,10.47
2018-08-16T06:01:52.639Z,9.50
2018-08-16T06:04:21.752Z,10.37
2018-08-16T06:06:50.891Z,9.07
2018-08-16T06:09:20.067Z,9.30
2018-08-16T06:11:49.266Z,9.87
2018-08-16T06:14:18.230Z,9.90
2018-08-16T06:16:47.297Z,9.23
2018-08-16T06:19:16.270Z,9.10
2018-08-16T06:21:45.228Z,9.70
2018-08-16T06:24:14.216Z,10.30
2018-08-16T06:26:43.176Z,9.73
2018-08-16T06:29:12.342Z,9.33
2018-08-16T06:31:41.393Z,8.40
2018-08-16T06:34:10.311Z,8.57
2018-08-16T06:36:39.276Z,12.70
2018-08-16T06:39:10.018Z,9.33
2018-08-16T06:41:39.680Z,9.70
2018-08-16T06:44:08.900Z,8.20
2018-08-16T06:46:38.046Z,9.37
2018-08-16T06:49:07.356Z,10.87
2018-08-16T06:51:36.300Z,11.13
2018-08-16T06:54:05.273Z,10.00
2018-08-16T06:56:34.390Z,11.73
2018-08-16T06:59:03.467Z,9.90
2018-08-16T07:01:32.552Z,14.37
2018-08-16T07:04:01.567Z,13.80
2018-08-16T07:06:30.520Z,8.07
2018-08-16T07:08:59.486Z,8.80
2018-08-16T07:11:28.603Z,9.90
2018-08-16T07:13:57.692Z,9.17
2018-08-16T07:16:26.683Z,10.83
2018-08-16T07:18:55.655Z,11.10
2018-08-16T07:21:24.643Z,10.90
2018-08-16T07:23:53.660Z,10.30
2018-08-16T07:26:22.639Z,10.07
2018-08-16T07:28:51.615Z,8.13
2018-08-16T07:31:20.695Z,8.57
2018-08-16T07:33:49.903Z,9.53
2018-08-16T07:36:18.878Z,7.53
2018-08-16T07:38:47.839Z,8.33
2018-08-16T07:41:17.002Z,9.20
2018-08-16T07:43:46.008Z,9.00
2018-08-16T07:46:15.173Z,7.93
2018-08-16T07:48:44.040Z,8.53
2018-08-16T07:51:13.022Z,7.73
2018-08-16T07:53:42.104Z,8.87
2018-08-16T07:56:11.320Z,7.93
2018-08-16T07:58:40.371Z,10.83
2018-08-16T08:01:09.480Z,11.00
2018-08-16T08:03:38.655Z,10.93
2018-08-16T08:06:07.953Z,9.83
2018-08-16T08:08:36.968Z,10.00
2018-08-16T08:11:06.184Z,11.37
2018-08-16T08:13:35.276Z,11.97
2018-08-16T08:16:04.244Z,10.77
2018-08-16T08:18:33.207Z,10.50
2018-08-16T08:21:02.298Z,9.40
2018-08-16T08:23:31.303Z,9.83
2018-08-16T08:26:00.288Z,10.33
2018-08-16T08:28:29.366Z,8.67
2018-08-16T08:30:58.510Z,10.43
2018-08-16T08:33:27.507Z,9.93
2018-08-16T08:36:07.911Z,11.73
2018-08-16T08:38:36.924Z,9.00
2018-08-16T08:41:05.889Z,10.80
2018-08-16T08:43:46.650Z,10.33
2018-08-16T08:46:15.639Z,11.80
2018-08-16T08:48:44.643Z,10.70
2018-08-16T08:51:13.845Z,9.97
2018-08-16T08:54:31.300Z,9.30
2018-08-16T08:57:12.315Z,9.03
2018-08-16T08:59:41.950Z,11.60
2018-08-16T09:02:11.668Z,10.40
2018-08-16T09:04:40.621Z,8.83
2018-08-16T09:07:11.877Z,12.20
2018-08-16T09:11:00.195Z,12.70
2018-08-16T09:13:41.080Z,10.20
2018-08-16T09:16:14.626Z,12.37
2018-08-16T09:18:43.611Z,13.80
2018-08-16T09:21:13.327Z,13.37
2018-08-16T09:23:42.336Z,10.40
2018-08-16T09:26:16.900Z,11.80
2018-08-16T09:28:46.165Z,8.50
2018-08-16T09:32:27.588Z,9.70
2018-08-16T09:34:56.759Z,11.23
2018-08-16T09:37:31.295Z,9.57
2018-08-16T09:40:00.308Z,12.60
2018-08-16T09:42:29.724Z,9.47
2018-08-16T09:45:10.103Z,9.63
2018-08-16T09:47:50.451Z,9.93
2018-08-16T09:50:19.436Z,10.07
2018-08-16T09:52:48.447Z,14.57
2018-08-16T09:55:17.395Z,9.23
2018-08-16T09:57:46.359Z,10.90
2018-08-16T10:00:15.345Z,9.90
2018-08-16T10:02:44.328Z,9.90
2018-08-16T10:05:13.275Z,12.03
2018-08-16T10:07:42.256Z,11.10
2018-08-16T10:10:11.312Z,11.70
2018-08-16T10:12:40.279Z,12.17
2018-08-16T10:15:09.247Z,11.70
2018-08-16T10:17:38.220Z,9.73
2018-08-16T10:20:07.551Z,9.97
2018-08-16T10:22:36.581Z,10.77
2018-08-16T10:25:05.527Z,11.70
2018-08-16T10:27:34.487Z,11.23
2018-08-16T10:30:03.719Z,10.00
2018-08-16T10:32:32.767Z,10.10
2018-08-16T10:35:01.824Z,9.90
2018-08-16T10:37:30.795Z,10.30
2018-08-16T10:39:59.900Z,11.63
2018-08-16T10:42:28.885Z,12.33
2018-08-16T10:44:57.904Z,11.17
2018-08-16T10:47:26.936Z,14.47
2018-08-16T10:49:55.951Z,11.10
2018-08-16T10:52:25.091Z,10.63
2018-08-16T10:54:54.520Z,12.00
2018-08-16T10:57:23.748Z,10.73
2018-08-16T10:59:52.675Z,9.27
2018-08-16T11:02:22.043Z,10.03
2018-08-16T11:04:51.006Z,13.23
2018-08-16T11:07:20.376Z,11.27
2018-08-16T11:09:49.341Z,14.27
2018-08-16T11:12:18.359Z,12.00
2018-08-16T11:14:47.359Z,11.90
2018-08-16T11:17:16.335Z,11.90
2018-08-16T11:19:45.315Z,12.80
2018-08-16T11:22:14.307Z,11.00
2018-08-16T11:24:43.436Z,12.23
2018-08-16T11:27:12.501Z,11.73
2018-08-16T11:29:41.472Z,14.20
2018-08-16T11:32:10.459Z,12.17
2018-08-16T11:34:39.882Z,8.67
2018-08-16T11:37:09.082Z,9.27
2018-08-16T11:39:38.142Z,10.50
2018-08-16T11:42:07.151Z,10.80
2018-08-16T11:44:36.180Z,12.53
2018-08-16T11:47:05.514Z,12.90
2018-08-16T11:49:34.927Z,12.63
2018-08-16T11:52:04.172Z,11.40
2018-08-16T11:54:33.128Z,10.30
2018-08-16T11:57:02.425Z,11.30
2018-08-16T11:59:31.488Z,11.83
2018-08-16T12:02:00.774Z,11.50
2018-08-16T12:04:30.108Z,13.97
2018-08-16T12:06:59.472Z,11.33
2018-08-16T12:09:28.743Z,12.20
2018-08-16T12:11:57.802Z,10.33
2018-08-16T12:14:26.834Z,11.00
2018-08-16T12:16:55.800Z,11.27
2018-08-16T12:19:24.899Z,12.10
2018-08-16T12:21:54.125Z,16.47
2018-08-16T12:24:23.094Z,12.03
2018-08-16T12:26:52.126Z,10.23
2018-08-16T12:29:21.397Z,15.23
2018-08-16T12:31:50.522Z,11.30
2018-08-16T12:34:19.900Z,10.97
2018-08-16T12:36:48.907Z,12.40
2018-08-16T12:39:18.585Z,12.17
2018-08-16T12:41:47.927Z,10.67
2018-08-16T12:44:16.932Z,18.53
2018-08-16T12:46:46.007Z,11.40
2018-08-16T12:49:15.172Z,11.90
2018-08-16T12:51:44.139Z,12.90
2018-08-16T12:54:13.243Z,11.20
2018-08-16T12:56:42.319Z,13.23
2018-08-16T12:59:11.277Z,12.27
2018-08-16T13:01:40.649Z,13.13
2018-08-16T13:04:09.635Z,12.80
2018-08-16T13:06:38.762Z,12.87
2018-08-16T13:09:08.813Z,16.40
2018-08-16T13:11:38.957Z,12.30
2018-08-16T13:14:08.088Z,8.90
2018-08-16T13:16:37.247Z,9.30
2018-08-16T13:19:06.559Z,14.17
2018-08-16T13:21:35.512Z,10.30
2018-08-16T13:24:04.459Z,12.90
2018-08-16T13:26:33.488Z,12.70
2018-08-16T13:29:02.427Z,13.80
2018-08-16T13:31:31.632Z,13.37
2018-08-16T13:34:00.851Z,13.17
2018-08-16T13:36:29.843Z,11.60
2018-08-16T13:38:58.900Z,14.53
2018-08-16T13:41:28.677Z,17.13
2018-08-16T13:43:57.828Z,17.17
2018-08-16T13:46:26.825Z,17.10
2018-08-16T13:48:56.003Z,16.43
2018-08-16T13:51:25.900Z,16.67
2018-08-16T13:53:55.227Z,15.20
2018-08-16T13:56:24.644Z,18.00
2018-08-16T13:58:53.639Z,16.50
2018-08-16T14:01:22.626Z,15.70
2018-08-16T14:03:51.595Z,14.23
2018-08-16T14:06:20.625Z,14.90
2018-08-16T14:08:49.491Z,15.30
2018-08-16T14:11:18.467Z,19.10
2018-08-16T14:13:47.692Z,13.93
2018-08-16T14:16:17.070Z,14.83
2018-08-16T14:18:46.096Z,14.23
2018-08-16T14:21:15.026Z,15.30
2018-08-16T14:23:44.000Z,12.00
2018-08-16T14:26:13.695Z,12.80
2018-08-16T14:28:42.700Z,11.70
2018-08-16T14:31:11.663Z,13.50
2018-08-16T14:33:41.093Z,15.30
2018-08-16T14:36:10.172Z,17.93
2018-08-16T14:38:39.210Z,9.40
2018-08-16T14:41:08.207Z,11.53
2018-08-16T14:43:37.264Z,15.83
2018-08-16T14:46:06.243Z,12.30
2018-08-16T14:48:35.204Z,14.40
2018-08-16T14:51:04.172Z,14.37
2018-08-16T14:53:33.532Z,12.80
2018-08-16T14:56:02.473Z,13.40
2018-08-16T14:58:31.471Z,11.50
2018-08-16T15:01:00.743Z,14.07
2018-08-16T15:03:29.903Z,13.30
2018-08-16T15:05:58.912Z,14.60
2018-08-16T15:08:27.865Z,13.33
2018-08-16T15:10:57.567Z,13.30
2018-08-16T15:13:26.568Z,9.60
2018-08-16T15:15:55.535Z,14.10
2018-08-16T15:18:24.931Z,15.50
2018-08-16T15:20:53.904Z,13.10
2018-08-16T15:23:22.878Z,12.87
2018-08-16T15:25:51.844Z,16.03
2018-08-16T15:28:21.359Z,15.60
2018-08-16T15:30:50.573Z,24.47
2018-08-16T15:33:19.758Z,20.83
2018-08-16T15:35:48.727Z,18.90
2018-08-16T15:38:17.689Z,16.93
2018-08-16T15:40:46.720Z,22.37
2018-08-16T15:43:16.079Z,17.93
2018-08-16T15:45:45.079Z,14.03
2018-08-16T15:48:15.481Z,22.83
2018-08-16T15:50:45.887Z,19.47
2018-08-16T15:53:15.082Z,17.57
2018-08-16T15:55:44.313Z,17.93
2018-08-16T15:58:14.375Z,14.90
2018-08-16T16:00:43.136Z,16.90
2018-08-16T16:03:12.342Z,17.37
2018-08-16T16:05:41.254Z,16.90
2018-08-16T16:08:10.440Z,20.47
2018-08-16T16:10:39.410Z,14.23
2018-08-16T16:13:08.363Z,14.60
2018-08-16T16:15:37.400Z,23.30
2018-08-16T16:18:07.028Z,23.83
2018-08-16T16:20:37.123Z,16.23
2018-08-16T16:23:06.577Z,20.03
2018-08-16T16:25:35.604Z,20.40
2018-08-16T16:28:04.940Z,19.37
2018-08-16T16:30:34.412Z,23.50
2018-08-16T16:33:03.420Z,24.87
2018-08-16T16:35:32.463Z,20.20
2018-08-16T16:38:01.455Z,24.10
2018-08-16T16:40:30.464Z,22.90
2018-08-16T16:42:59.455Z,31.90
2018-08-16T16:45:28.766Z,30.47
2018-08-16T16:47:58.820Z,34.80
2018-08-16T16:50:27.929Z,23.03
2018-08-16T16:52:56.927Z,35.30
2018-08-16T16:55:25.886Z,21.37
2018-08-16T16:57:54.887Z,29.07
2018-08-16T17:00:23.868Z,29.17
2018-08-16T17:02:53.063Z,32.03
2018-08-16T17:05:22.127Z,32.27
2018-08-16T17:07:51.410Z,27.67
2018-08-16T17:10:20.367Z,33.40
2018-08-16T17:12:49.383Z,32.43
2018-08-16T17:15:18.493Z,38.57
2018-08-16T17:17:47.530Z,33.10
2018-08-16T17:20:16.531Z,26.50
2018-08-16T17:22:45.379Z,27.00
2018-08-16T17:25:14.243Z,15.60
2018-08-16T17:27:43.401Z,22.20
2018-08-16T17:30:12.482Z,23.03
2018-08-16T17:32:41.846Z,15.30
2018-08-16T17:35:10.972Z,15.77
2018-08-16T17:37:39.990Z,14.37
2018-08-16T17:40:09.203Z,17.93
2018-08-16T17:42:38.093Z,12.60
2018-08-16T17:45:07.176Z,14.50
2018-08-16T17:47:36.151Z,12.43
2018-08-16T17:50:05.519Z,11.90
2018-08-16T17:52:34.524Z,15.17
2018-08-16T17:55:03.535Z,15.10
2018-08-16T17:57:32.683Z,13.50
2018-08-16T18:00:01.729Z,12.57
2018-08-16T18:02:30.746Z,16.53
2018-08-16T18:04:59.727Z,16.67
2018-08-16T18:07:28.688Z,14.17
2018-08-16T18:09:57.628Z,13.33
2018-08-16T18:12:26.602Z,12.40
2018-08-16T18:14:55.840Z,12.60
2018-08-16T18:17:24.868Z,13.23
2018-08-16T18:19:54.102Z,10.67
2018-08-16T18:22:23.089Z,12.00
2018-08-16T18:24:52.059Z,11.83
2018-08-16T18:27:21.088Z,11.57
2018-08-16T18:29:50.448Z,12.07
2018-08-16T18:32:19.395Z,11.93
2018-08-16T18:34:48.567Z,13.53
2018-08-16T18:37:17.563Z,10.67
2018-08-16T18:39:46.731Z,9.13
2018-08-16T18:42:15.937Z,10.80
2018-08-16T18:44:45.199Z,8.87
2018-08-16T18:47:14.199Z,9.40
2018-08-16T18:49:43.148Z,11.93
2018-08-16T18:52:12.099Z,8.30
2018-08-16T18:54:41.111Z,10.27
2018-08-16T18:57:10.104Z,12.53
2018-08-16T18:59:39.189Z,10.93
2018-08-16T19:02:08.195Z,11.90
2018-08-16T19:04:37.166Z,11.03
2018-08-16T19:07:06.147Z,10.77
2018-08-16T19:09:35.272Z,13.80
2018-08-16T19:12:04.275Z,12.87
2018-08-16T19:14:33.449Z,11.80
2018-08-16T19:17:03.667Z,12.00
2018-08-16T19:19:32.651Z,11.60
2018-08-16T19:22:01.792Z,15.03
2018-08-16T19:24:30.784Z,12.40
2018-08-16T19:27:00.327Z,12.83
2018-08-16T19:29:29.455Z,11.30
2018-08-16T19:31:59.050Z,12.27
2018-08-16T19:34:28.767Z,12.43
2018-08-16T19:36:58.615Z,13.30
2018-08-16T19:39:27.601Z,9.83
2018-08-16T19:41:56.561Z,10.13
2018-08-16T19:44:25.531Z,11.20
2018-08-16T19:46:54.963Z,11.93
2018-08-16T19:49:24.116Z,13.43
2018-08-16T19:51:53.066Z,15.33
2018-08-16T19:54:22.043Z,11.50
2018-08-16T19:56:51.018Z,11.63
2018-08-16T19:59:20.258Z,10.53
2018-08-16T20:01:49.283Z,12.33
2018-08-16T20:04:18.277Z,11.10
2018-08-16T20:06:47.242Z,13.33
2018-08-16T20:09:16.241Z,12.27
2018-08-16T20:11:45.241Z,13.13
2018-08-16T20:14:15.056Z,12.07
2018-08-16T20:16:44.029Z,11.27
2018-08-16T20:19:13.027Z,12.57
2018-08-16T20:21:42.042Z,12.70
2018-08-16T20:24:11.153Z,12.40
2018-08-16T20:26:39.971Z,10.37
2018-08-16T20:29:08.960Z,12.13
2018-08-16T20:31:38.147Z,12.87
2018-08-16T20:34:07.140Z,12.00
2018-08-16T20:36:36.134Z,11.70
2018-08-16T20:39:07.063Z,13.70
2018-08-16T20:41:37.089Z,10.60
2018-08-16T20:44:06.391Z,11.57
2018-08-16T20:46:35.375Z,12.03
2018-08-16T20:49:04.523Z,11.53
2018-08-16T20:51:33.318Z,11.77
2018-08-16T20:54:02.144Z,10.73
2018-08-16T20:56:31.123Z,11.43
2018-08-16T20:59:00.616Z,11.67
2018-08-16T21:01:29.633Z,11.60
2018-08-16T21:03:59.144Z,9.20
2018-08-16T21:06:28.395Z,8.70
2018-08-16T21:08:57.767Z,10.33
2018-08-16T21:11:26.786Z,9.00
2018-08-16T21:13:55.740Z,10.60
2018-08-16T21:16:24.687Z,9.93
2018-08-16T21:18:54.327Z,11.23
2018-08-16T21:21:23.759Z,11.60
2018-08-16T21:23:52.949Z,10.00
2018-08-16T21:26:22.655Z,8.33
2018-08-16T21:28:51.934Z,9.30
2018-08-16T21:31:21.027Z,8.97
2018-08-16T21:33:50.435Z,10.57
2018-08-16T21:36:19.404Z,11.23
2018-08-16T21:38:48.740Z,8.90
2018-08-16T21:41:17.719Z,9.13
2018-08-16T21:43:46.755Z,9.50
2018-08-16T21:46:15.761Z,9.77
2018-08-16T21:48:44.751Z,9.77
2018-08-16T21:51:13.739Z,12.87
2018-08-16T21:53:42.914Z,8.40
2018-08-16T21:56:11.861Z,10.03
2018-08-16T21:58:41.572Z,8.63
2018-08-16T22:01:10.540Z,7.60
2018-08-16T22:03:39.531Z,7.90
2018-08-16T22:06:09.731Z,8.80
2018-08-16T22:08:39.867Z,10.10
2018-08-16T22:11:09.459Z,10.03
2018-08-16T22:13:38.653Z,10.40
2018-08-16T22:16:08.248Z,9.97
2018-08-16T22:18:38.469Z,9.87
2018-08-16T22:21:07.912Z,8.40
2018-08-16T22:23:36.846Z,10.93
2018-08-16T22:26:05.946Z,10.53
2018-08-16T22:28:34.891Z,11.37
2018-08-16T22:31:03.871Z,10.40
2018-08-16T22:33:33.212Z,10.93
2018-08-16T22:36:02.347Z,10.17
2018-08-16T22:38:31.715Z,9.93
2018-08-16T22:41:00.726Z,10.30
2018-08-16T22:43:29.683Z,9.93
2018-08-16T22:45:58.964Z,10.97
2018-08-16T22:48:27.996Z,11.97
2018-08-16T22:50:57.064Z,10.73
2018-08-16T22:53:26.040Z,9.10
2018-08-16T22:55:55.254Z,9.97
2018-08-16T22:58:24.248Z,11.40
2018-08-16T23:00:53.232Z,11.33
2018-08-16T23:03:22.468Z,13.73
2018-08-16T23:05:51.519Z,10.30
2018-08-16T23:08:20.530Z,12.70
2018-08-16T23:10:49.827Z,11.17
2018-08-16T23:13:18.943Z,11.80
2018-08-16T23:15:48.307Z,10.30
2018-08-16T23:18:17.627Z,9.17
2018-08-16T23:20:47.423Z,8.90
2018-08-16T23:23:16.379Z,11.10
2018-08-16T23:25:46.044Z,10.30
2018-08-16T23:28:15.011Z,11.73
2018-08-16T23:30:43.972Z,12.20
2018-08-16T23:33:12.971Z,11.00
2018-08-16T23:35:41.945Z,10.53
2018-08-16T23:38:10.938Z,10.97
2018-08-16T23:40:39.963Z,12.20
2018-08-16T23:43:08.955Z,11.63
2018-08-16T23:45:37.923Z,13.57
2018-08-16T23:48:18.283Z,10.73
2018-08-16T23:50:47.236Z,11.00
2018-08-16T23:53:16.236Z,12.07
2018-08-16T23:55:45.562Z,12.70
2018-08-16T23:58:14.960Z,16.17
